Arlington Heights, IL

11:48 AM CDT on March 29, 2015 (GMT -0500)
Arlington Heights Historical District | | Change Station
CLOSE
Current Station
Personal Weather Station
Location: Arlington Heights, IL
Elevation: 722 ft
Nearby Weather Stations

Elev 722 ft 42.09 °N, 87.99 °W | Updated 30 seconds ago

Mostly Cloudy
Mostly Cloudy
34.7 °F
Feels Like 28 °F
N
7.6
Wind Variable Wind from NE
Gusts 15.2 mph

Today
High -- | Low -- °F
--% Chance of Precip.
Yesterday
High -- | Low -- °F
Precip. -- in
6:40 AM 7:13 PM
Waxing Gibbous, 72% visible
Pressure 30.00 in
Visibility 10.0 miles
Clouds Mostly Cloudy 9000 ft
Windchill 28 °F
Dew Point 23 °F
Humidity 62%
Rainfall 0.02 in
Snow Depth Not available.
UV 3 out of 12
Pollen 3.90 out of 12
Air Quality Not available.
Flu Activity Not available.
METAR KPWK 291552Z 19018G28KT 10SM BKN090 03/M08 A2997 RMK AO2 PK WND 19032/1539 SLP157 T00331083

More Conditions Fewer Conditions

Pressure 30.00 in
Visibility 10.0 miles
Clouds Mostly Cloudy 9000 ft
Windchill 28 °F
Dew Point 23 °F
Humidity 62%
Rainfall 0.02 in
Snow Depth Not available.
UV 3 out of 12
Pollen 3.90 out of 12
Air Quality Not available.
Flu Activity Not available.
METAR KPWK 291552Z 19018G28KT 10SM BKN090 03/M08 A2997 RMK AO2 PK WND 19032/1539 SLP157 T00331083

More Conditions Fewer Conditions

10-Day Weather Forecast

Almanac

Astronomy

Mar. 29, 2015 Rise Set
Actual Time
Civil Twilight
Nautical Twilight
Astronomical Twilight
Moon
Length of Visible Light
Length of Day
Tomorrow will be .
, % of the Moon is Illuminated

Today's Extremes

State Highs State Lows

Community

WunderPhotos

Upload Photos

1,809,289 photos uploaded!

WunderBlogs® & News

Nearby

Air Quality

  Air Quality AQ Index Pollutant
Not available.

Snow Depth

Station Depth Elevation

Earthquake Activity

City Distance Mag. Time & Date
Minimum magnitude displayed is 2.5.

Coastal Water Temperatures

Place Temperature

Stations

Nearby Weather Stations

Station Location Temp. Windchill Dew Point Humidity Wind Precip. Elev Updated Type